This is the latest recevied weather packets stored in our database for station/object HP1CDW-13. If no packets are shown the sender has not sent any weather packets the latest 10 day(s).
| Time | Temp. | Humidity | Pressure | Rain* | Wind** | Luminosity | Snow |
|---|---|---|---|---|---|---|---|
| 1777916690 | 30.56° C | 75% | 1014 hPa | 0 mm | - | - | - |
| 1777916090 | 31.11° C | 74% | 1014.3 hPa | 0 mm | - | - | - |
| 1777915490 | 31.67° C | 73% | 1014.3 hPa | 0 mm | - | - | - |
| 1777914890 | 31.67° C | 72% | 1014.5 hPa | 0 mm | - | - | - |
| 1777914290 | 31.67° C | 73% | 1014.4 hPa | 0 mm | - | - | - |
| 1777913690 | 32.22° C | 71% | 1014.5 hPa | 0 mm | - | - | - |
| 1777913090 | 31.67° C | 74% | 1014.4 hPa | 0 mm | - | - | - |
| 1777912490 | 31.11° C | 74% | 1014.6 hPa | 0 mm | - | - | - |
| 1777911890 | 31.11° C | 75% | 1014.9 hPa | 0 mm | - | - | - |
| 1777911290 | 31.67° C | 72% | 1014.9 hPa | 0 mm | - | - | - |
| 1777910690 | 30.56° C | 75% | 1015 hPa | 0 mm | - | - | - |
| 1777910090 | 30.56° C | 74% | 1014.8 hPa | 0 mm | - | - | - |
| 1777909490 | 30.56° C | 74% | 1015 hPa | 0 mm | - | - | - |
| 1777908890 | 31.11° C | 74% | 1015.3 hPa | 0 mm | - | - | - |
| 1777908290 | 31.67° C | 73% | 1014.8 hPa | 0 mm | - | - | - |
| 1777907690 | 31.67° C | 73% | 1014.9 hPa | 0 mm | - | - | - |
| 1777907090 | 31.67° C | 72% | 1015.1 hPa | 0 mm | - | - | - |
| 1777906490 | 30.56° C | 74% | 1015.1 hPa | 0 mm | - | - | - |
| 1777905890 | 31.11° C | 73% | 1015 hPa | 0 mm | - | - | - |
| 1777905290 | 30.56° C | 73% | 1015.2 hPa | 0 mm | - | - | - |
| 1777904690 | 30° C | 77% | 1015.3 hPa | 0 mm | - | - | - |
| 1777904090 | 28.89° C | 78% | 1015 hPa | 0 mm | - | - | - |
| 1777903490 | 29.44° C | 78% | 1015.1 hPa | 0 mm | - | - | - |
| 1777902890 | 28.89° C | 78% | 1014.7 hPa | 0 mm | - | - | - |
| 1777902290 | 28.89° C | 79% | 1014.9 hPa | 0 mm | - | - | - |
* Rain latest hour (hover to see other rain measurements)
** Current wind speed in m/s (hover to see current wind gust speed)